sensor_id;sensor_type;location;lat;lon;timestamp;pressure;altitude;pressure_sealevel;temperature;humidity
56070;BME280;41944;52.078;-0.058;2023-12-29T00:01:43;100116.22;;;11.22;79.78
56070;BME280;41944;52.078;-0.058;2023-12-29T00:04:10;100110.64;;;11.27;78.80
56070;BME280;41944;52.078;-0.058;2023-12-29T00:06:38;100123.08;;;11.28;79.47
56070;BME280;41944;52.078;-0.058;2023-12-29T00:09:05;100121.36;;;11.27;78.78
56070;BME280;41944;52.078;-0.058;2023-12-29T00:11:32;100117.93;;;11.23;78.90
56070;BME280;41944;52.078;-0.058;2023-12-29T00:13:59;100128.59;;;11.22;79.22
56070;BME280;41944;52.078;-0.058;2023-12-29T00:16:27;100131.39;;;11.12;80.19
56070;BME280;41944;52.078;-0.058;2023-12-29T00:18:54;100122.02;;;11.13;79.50
56070;BME280;41944;52.078;-0.058;2023-12-29T00:21:21;100124.25;;;10.97;79.22
56070;BME280;41944;52.078;-0.058;2023-12-29T00:23:48;100123.27;;;10.95;79.29
56070;BME280;41944;52.078;-0.058;2023-12-29T00:26:16;100128.49;;;10.92;79.26
56070;BME280;41944;52.078;-0.058;2023-12-29T00:28:43;100124.34;;;10.91;79.49
56070;BME280;41944;52.078;-0.058;2023-12-29T00:31:14;100125.68;;;10.90;79.42
56070;BME280;41944;52.078;-0.058;2023-12-29T00:33:41;100126.71;;;10.89;79.68
56070;BME280;41944;52.078;-0.058;2023-12-29T00:36:08;100135.93;;;10.93;79.95
56070;BME280;41944;52.078;-0.058;2023-12-29T00:38:40;100139.48;;;10.85;79.56
56070;BME280;41944;52.078;-0.058;2023-12-29T00:41:07;100136.52;;;10.89;79.04
56070;BME280;41944;52.078;-0.058;2023-12-29T00:43:34;100136.41;;;10.90;78.76
56070;BME280;41944;52.078;-0.058;2023-12-29T00:46:01;100140.48;;;10.92;78.91
56070;BME280;41944;52.078;-0.058;2023-12-29T00:48:28;100134.83;;;10.95;78.45
56070;BME280;41944;52.078;-0.058;2023-12-29T00:50:55;100127.17;;;10.88;78.32
56070;BME280;41944;52.078;-0.058;2023-12-29T00:53:22;100125.57;;;10.82;79.59
56070;BME280;41944;52.078;-0.058;2023-12-29T00:55:50;100133.27;;;10.82;79.95
56070;BME280;41944;52.078;-0.058;2023-12-29T00:58:16;100143.24;;;10.86;80.91
56070;BME280;41944;52.078;-0.058;2023-12-29T01:00:43;100148.67;;;10.89;81.47
56070;BME280;41944;52.078;-0.058;2023-12-29T01:03:10;100149.78;;;10.90;81.24
56070;BME280;41944;52.078;-0.058;2023-12-29T01:05:37;100152.80;;;10.92;81.41
56070;BME280;41944;52.078;-0.058;2023-12-29T01:08:04;100149.09;;;10.88;81.58
56070;BME280;41944;52.078;-0.058;2023-12-29T01:10:31;100135.12;;;10.88;82.49
56070;BME280;41944;52.078;-0.058;2023-12-29T01:12:58;100139.90;;;10.90;82.06
56070;BME280;41944;52.078;-0.058;2023-12-29T01:15:25;100133.59;;;10.89;81.92
56070;BME280;41944;52.078;-0.058;2023-12-29T01:17:52;100139.00;;;10.81;82.40
56070;BME280;41944;52.078;-0.058;2023-12-29T01:20:18;100124.20;;;10.83;82.47
56070;BME280;41944;52.078;-0.058;2023-12-29T01:22:45;100118.08;;;10.80;82.63
56070;BME280;41944;52.078;-0.058;2023-12-29T01:25:12;100107.57;;;10.75;83.06
56070;BME280;41944;52.078;-0.058;2023-12-29T01:27:39;100092.24;;;10.75;82.96
56070;BME280;41944;52.078;-0.058;2023-12-29T01:30:07;100089.07;;;10.72;83.80
56070;BME280;41944;52.078;-0.058;2023-12-29T01:32:36;100091.47;;;10.74;83.50
56070;BME280;41944;52.078;-0.058;2023-12-29T01:35:03;100091.79;;;10.73;83.70
56070;BME280;41944;52.078;-0.058;2023-12-29T01:37:30;100106.76;;;10.79;83.54
56070;BME280;41944;52.078;-0.058;2023-12-29T01:39:57;100112.72;;;10.80;83.61
56070;BME280;41944;52.078;-0.058;2023-12-29T01:42:24;100107.40;;;10.73;84.30
56070;BME280;41944;52.078;-0.058;2023-12-29T01:44:53;100108.62;;;10.70;84.35
56070;BME280;41944;52.078;-0.058;2023-12-29T01:47:21;100105.45;;;10.65;84.90
56070;BME280;41944;52.078;-0.058;2023-12-29T01:49:49;100113.77;;;10.67;84.75
56070;BME280;41944;52.078;-0.058;2023-12-29T01:52:17;100115.28;;;10.61;85.04
56070;BME280;41944;52.078;-0.058;2023-12-29T01:54:46;100118.40;;;10.68;84.36
56070;BME280;41944;52.078;-0.058;2023-12-29T01:57:14;100111.33;;;10.69;84.50
56070;BME280;41944;52.078;-0.058;2023-12-29T01:59:42;100108.44;;;10.73;83.86
56070;BME280;41944;52.078;-0.058;2023-12-29T02:02:09;100111.09;;;10.73;83.86
56070;BME280;41944;52.078;-0.058;2023-12-29T02:04:37;100111.52;;;10.73;83.67
56070;BME280;41944;52.078;-0.058;2023-12-29T02:07:05;100108.57;;;10.75;84.34
56070;BME280;41944;52.078;-0.058;2023-12-29T02:09:32;100112.57;;;10.83;83.65
56070;BME280;41944;52.078;-0.058;2023-12-29T02:12:00;100112.77;;;10.81;84.06
56070;BME280;41944;52.078;-0.058;2023-12-29T02:14:27;100105.15;;;10.81;83.53
56070;BME280;41944;52.078;-0.058;2023-12-29T02:17:01;100111.70;;;10.79;83.92
56070;BME280;41944;52.078;-0.058;2023-12-29T02:19:38;100111.39;;;10.77;83.84
56070;BME280;41944;52.078;-0.058;2023-12-29T02:22:06;100113.11;;;10.83;83.85
56070;BME280;41944;52.078;-0.058;2023-12-29T02:24:34;100104.64;;;10.82;83.29
56070;BME280;41944;52.078;-0.058;2023-12-29T02:27:07;100100.31;;;10.85;83.27
56070;BME280;41944;52.078;-0.058;2023-12-29T02:29:40;100108.65;;;10.89;83.07
56070;BME280;41944;52.078;-0.058;2023-12-29T02:32:14;100105.12;;;10.88;83.20
56070;BME280;41944;52.078;-0.058;2023-12-29T02:34:44;100103.00;;;10.91;83.46
56070;BME280;41944;52.078;-0.058;2023-12-29T02:37:15;100106.29;;;10.93;83.18
56070;BME280;41944;52.078;-0.058;2023-12-29T02:39:42;100112.45;;;10.93;83.56
56070;BME280;41944;52.078;-0.058;2023-12-29T02:42:09;100111.85;;;10.90;83.88
56070;BME280;41944;52.078;-0.058;2023-12-29T02:44:36;100121.51;;;10.92;84.24
56070;BME280;41944;52.078;-0.058;2023-12-29T02:47:03;100132.31;;;10.91;84.78
56070;BME280;41944;52.078;-0.058;2023-12-29T02:49:30;100136.80;;;10.97;85.81
56070;BME280;41944;52.078;-0.058;2023-12-29T02:51:57;100126.12;;;10.99;87.46
56070;BME280;41944;52.078;-0.058;2023-12-29T02:54:24;100135.59;;;11.02;86.88
56070;BME280;41944;52.078;-0.058;2023-12-29T02:56:52;100136.11;;;11.01;87.45
56070;BME280;41944;52.078;-0.058;2023-12-29T02:59:19;100127.28;;;10.97;85.39
56070;BME280;41944;52.078;-0.058;2023-12-29T03:01:45;100120.19;;;10.84;85.18
56070;BME280;41944;52.078;-0.058;2023-12-29T03:04:12;100112.44;;;10.78;84.86
56070;BME280;41944;52.078;-0.058;2023-12-29T03:06:40;100107.41;;;10.75;85.35
56070;BME280;41944;52.078;-0.058;2023-12-29T03:09:07;100098.01;;;10.64;85.31
56070;BME280;41944;52.078;-0.058;2023-12-29T03:11:34;100096.59;;;10.65;85.19
56070;BME280;41944;52.078;-0.058;2023-12-29T03:14:01;100087.17;;;10.64;85.38
56070;BME280;41944;52.078;-0.058;2023-12-29T03:16:28;100101.30;;;10.64;84.99
56070;BME280;41944;52.078;-0.058;2023-12-29T03:18:54;100101.30;;;10.63;85.00
56070;BME280;41944;52.078;-0.058;2023-12-29T03:21:21;100099.56;;;10.66;84.48
56070;BME280;41944;52.078;-0.058;2023-12-29T03:23:49;100102.25;;;10.63;84.30
56070;BME280;41944;52.078;-0.058;2023-12-29T03:26:16;100098.36;;;10.56;84.70
56070;BME280;41944;52.078;-0.058;2023-12-29T03:28:43;100100.31;;;10.57;84.61
56070;BME280;41944;52.078;-0.058;2023-12-29T03:31:10;100109.51;;;10.61;84.12
56070;BME280;41944;52.078;-0.058;2023-12-29T03:33:37;100114.63;;;10.58;83.39
56070;BME280;41944;52.078;-0.058;2023-12-29T03:36:04;100121.40;;;10.55;84.64
56070;BME280;41944;52.078;-0.058;2023-12-29T03:38:31;100125.21;;;10.55;85.46
56070;BME280;41944;52.078;-0.058;2023-12-29T03:40:58;100139.20;;;10.53;87.65
56070;BME280;41944;52.078;-0.058;2023-12-29T03:43:25;100130.72;;;10.54;89.26
56070;BME280;41944;52.078;-0.058;2023-12-29T03:45:52;100131.99;;;10.57;89.37
56070;BME280;41944;52.078;-0.058;2023-12-29T03:48:19;100121.04;;;10.45;90.00
56070;BME280;41944;52.078;-0.058;2023-12-29T03:50:46;100117.48;;;10.47;90.68
56070;BME280;41944;52.078;-0.058;2023-12-29T03:53:12;100116.87;;;10.44;90.36
56070;BME280;41944;52.078;-0.058;2023-12-29T03:55:39;100110.13;;;10.47;90.84
56070;BME280;41944;52.078;-0.058;2023-12-29T03:58:06;100105.31;;;10.45;90.66
56070;BME280;41944;52.078;-0.058;2023-12-29T04:00:33;100105.80;;;10.41;91.37
56070;BME280;41944;52.078;-0.058;2023-12-29T04:03:00;100109.73;;;10.37;92.01
56070;BME280;41944;52.078;-0.058;2023-12-29T04:05:27;100107.75;;;10.37;92.54
56070;BME280;41944;52.078;-0.058;2023-12-29T04:07:54;100099.47;;;10.39;92.58
56070;BME280;41944;52.078;-0.058;2023-12-29T04:10:20;100099.45;;;10.30;93.18
56070;BME280;41944;52.078;-0.058;2023-12-29T04:12:49;100106.36;;;10.31;92.85
56070;BME280;41944;52.078;-0.058;2023-12-29T04:15:16;100101.69;;;10.26;93.06
56070;BME280;41944;52.078;-0.058;2023-12-29T04:17:43;100106.78;;;10.27;93.00
56070;BME280;41944;52.078;-0.058;2023-12-29T04:20:10;100103.61;;;10.28;92.76
56070;BME280;41944;52.078;-0.058;2023-12-29T04:22:37;100098.64;;;10.39;92.45
56070;BME280;41944;52.078;-0.058;2023-12-29T04:25:05;100096.89;;;10.39;92.34
56070;BME280;41944;52.078;-0.058;2023-12-29T04:27:32;100097.49;;;10.44;91.86
56070;BME280;41944;52.078;-0.058;2023-12-29T04:29:59;100103.24;;;10.37;92.38
56070;BME280;41944;52.078;-0.058;2023-12-29T04:32:26;100110.69;;;10.31;92.79
56070;BME280;41944;52.078;-0.058;2023-12-29T04:34:53;100115.18;;;10.38;92.88
56070;BME280;41944;52.078;-0.058;2023-12-29T04:37:20;100120.11;;;10.37;93.28
56070;BME280;41944;52.078;-0.058;2023-12-29T04:39:46;100117.60;;;10.42;93.14
56070;BME280;41944;52.078;-0.058;2023-12-29T04:42:14;100092.12;;;10.52;92.87
56070;BME280;41944;52.078;-0.058;2023-12-29T04:44:41;100104.95;;;10.51;93.43
56070;BME280;41944;52.078;-0.058;2023-12-29T04:47:08;100099.61;;;10.47;94.41
56070;BME280;41944;52.078;-0.058;2023-12-29T04:49:35;100112.05;;;10.53;94.78
56070;BME280;41944;52.078;-0.058;2023-12-29T04:52:02;100108.95;;;10.59;93.81
56070;BME280;41944;52.078;-0.058;2023-12-29T04:54:29;100117.53;;;10.62;94.23
56070;BME280;41944;52.078;-0.058;2023-12-29T04:56:56;100116.76;;;10.53;95.00
56070;BME280;41944;52.078;-0.058;2023-12-29T04:59:23;100118.43;;;10.60;95.35
56070;BME280;41944;52.078;-0.058;2023-12-29T05:01:50;100122.70;;;10.44;96.71
56070;BME280;41944;52.078;-0.058;2023-12-29T05:04:17;100123.12;;;10.45;96.72
56070;BME280;41944;52.078;-0.058;2023-12-29T05:06:44;100124.96;;;10.43;98.05
56070;BME280;41944;52.078;-0.058;2023-12-29T05:09:11;100116.78;;;10.49;98.37
56070;BME280;41944;52.078;-0.058;2023-12-29T05:11:38;100115.00;;;10.54;98.01
56070;BME280;41944;52.078;-0.058;2023-12-29T05:14:06;100107.69;;;10.55;97.91
56070;BME280;41944;52.078;-0.058;2023-12-29T05:16:33;100108.09;;;10.71;97.08
56070;BME280;41944;52.078;-0.058;2023-12-29T05:18:59;100104.06;;;10.68;97.02
56070;BME280;41944;52.078;-0.058;2023-12-29T05:21:26;100108.86;;;10.78;96.52
56070;BME280;41944;52.078;-0.058;2023-12-29T05:23:54;100095.43;;;10.79;95.82
56070;BME280;41944;52.078;-0.058;2023-12-29T05:26:21;100100.09;;;10.72;96.02
56070;BME280;41944;52.078;-0.058;2023-12-29T05:28:48;100097.14;;;10.75;95.49
56070;BME280;41944;52.078;-0.058;2023-12-29T05:31:15;100099.48;;;10.60;96.14
56070;BME280;41944;52.078;-0.058;2023-12-29T05:33:43;100106.64;;;10.55;97.07
56070;BME280;41944;52.078;-0.058;2023-12-29T05:36:10;100113.51;;;10.61;96.53
56070;BME280;41944;52.078;-0.058;2023-12-29T05:38:38;100120.74;;;10.60;96.43
56070;BME280;41944;52.078;-0.058;2023-12-29T05:41:05;100115.20;;;10.59;96.95
56070;BME280;41944;52.078;-0.058;2023-12-29T05:43:33;100125.18;;;10.63;96.79
56070;BME280;41944;52.078;-0.058;2023-12-29T05:46:00;100118.24;;;10.64;96.54
56070;BME280;41944;52.078;-0.058;2023-12-29T05:48:28;100124.85;;;10.64;96.42
56070;BME280;41944;52.078;-0.058;2023-12-29T05:50:55;100115.88;;;10.61;96.38
56070;BME280;41944;52.078;-0.058;2023-12-29T05:53:22;100123.03;;;10.63;96.33
56070;BME280;41944;52.078;-0.058;2023-12-29T05:55:49;100125.06;;;10.65;96.14
56070;BME280;41944;52.078;-0.058;2023-12-29T05:58:16;100123.96;;;10.66;96.08
56070;BME280;41944;52.078;-0.058;2023-12-29T06:00:42;100111.36;;;10.64;96.24
56070;BME280;41944;52.078;-0.058;2023-12-29T06:03:09;100117.36;;;10.56;93.34
56070;BME280;41944;52.078;-0.058;2023-12-29T06:05:36;100125.51;;;10.57;94.62
56070;BME280;41944;52.078;-0.058;2023-12-29T06:08:04;100130.93;;;10.49;95.25
56070;BME280;41944;52.078;-0.058;2023-12-29T06:10:31;100128.40;;;10.53;95.59
56070;BME280;41944;52.078;-0.058;2023-12-29T06:12:58;100123.30;;;10.51;96.88
56070;BME280;41944;52.078;-0.058;2023-12-29T06:15:25;100136.21;;;10.51;97.80
56070;BME280;41944;52.078;-0.058;2023-12-29T06:17:51;100130.15;;;10.52;98.72
56070;BME280;41944;52.078;-0.058;2023-12-29T06:20:18;100133.37;;;10.49;98.98
56070;BME280;41944;52.078;-0.058;2023-12-29T06:22:46;100132.98;;;10.52;99.42
56070;BME280;41944;52.078;-0.058;2023-12-29T06:25:13;100132.46;;;10.53;98.49
56070;BME280;41944;52.078;-0.058;2023-12-29T06:27:40;100140.96;;;10.46;98.82
56070;BME280;41944;52.078;-0.058;2023-12-29T06:30:08;100132.49;;;10.44;99.10
56070;BME280;41944;52.078;-0.058;2023-12-29T06:32:35;100135.09;;;10.48;98.66
56070;BME280;41944;52.078;-0.058;2023-12-29T06:35:03;100138.52;;;10.49;97.78
56070;BME280;41944;52.078;-0.058;2023-12-29T06:37:31;100138.90;;;10.44;98.09
56070;BME280;41944;52.078;-0.058;2023-12-29T06:39:58;100136.48;;;10.35;97.95
56070;BME280;41944;52.078;-0.058;2023-12-29T06:42:24;100140.51;;;10.34;98.01
56070;BME280;41944;52.078;-0.058;2023-12-29T06:44:51;100141.15;;;10.40;97.34
56070;BME280;41944;52.078;-0.058;2023-12-29T06:47:19;100147.49;;;10.29;97.31
56070;BME280;41944;52.078;-0.058;2023-12-29T06:49:46;100151.46;;;10.21;97.95
56070;BME280;41944;52.078;-0.058;2023-12-29T06:52:13;100151.78;;;10.21;98.06
56070;BME280;41944;52.078;-0.058;2023-12-29T06:54:39;100154.34;;;10.20;98.26
56070;BME280;41944;52.078;-0.058;2023-12-29T06:57:06;100153.96;;;10.21;97.83
56070;BME280;41944;52.078;-0.058;2023-12-29T06:59:33;100157.98;;;10.16;98.08
56070;BME280;41944;52.078;-0.058;2023-12-29T07:02:00;100158.70;;;10.13;97.81
56070;BME280;41944;52.078;-0.058;2023-12-29T07:04:27;100157.82;;;10.14;97.81
56070;BME280;41944;52.078;-0.058;2023-12-29T07:06:54;100157.13;;;10.08;97.63
56070;BME280;41944;52.078;-0.058;2023-12-29T07:09:21;100158.45;;;10.00;98.05
56070;BME280;41944;52.078;-0.058;2023-12-29T07:11:49;100163.08;;;9.97;98.18
56070;BME280;41944;52.078;-0.058;2023-12-29T07:14:16;100165.28;;;9.95;98.55
56070;BME280;41944;52.078;-0.058;2023-12-29T07:16:44;100167.20;;;9.83;99.02
56070;BME280;41944;52.078;-0.058;2023-12-29T07:19:11;100171.59;;;9.96;98.61
56070;BME280;41944;52.078;-0.058;2023-12-29T07:21:38;100172.60;;;9.92;98.14
56070;BME280;41944;52.078;-0.058;2023-12-29T07:24:05;100177.70;;;9.91;98.58
56070;BME280;41944;52.078;-0.058;2023-12-29T07:26:32;100180.42;;;9.88;98.54
56070;BME280;41944;52.078;-0.058;2023-12-29T07:29:00;100182.37;;;9.95;98.14
56070;BME280;41944;52.078;-0.058;2023-12-29T07:31:27;100179.94;;;9.90;98.23
56070;BME280;41944;52.078;-0.058;2023-12-29T07:33:53;100180.29;;;9.83;99.09
56070;BME280;41944;52.078;-0.058;2023-12-29T07:36:20;100185.46;;;9.77;98.70
56070;BME280;41944;52.078;-0.058;2023-12-29T07:38:48;100194.26;;;9.79;99.03
56070;BME280;41944;52.078;-0.058;2023-12-29T07:41:15;100194.14;;;9.85;98.73
56070;BME280;41944;52.078;-0.058;2023-12-29T07:43:42;100198.87;;;9.84;98.55
56070;BME280;41944;52.078;-0.058;2023-12-29T07:46:09;100200.82;;;9.84;97.60
56070;BME280;41944;52.078;-0.058;2023-12-29T07:48:36;100207.09;;;9.89;97.97
56070;BME280;41944;52.078;-0.058;2023-12-29T07:51:05;100208.23;;;9.91;97.70
56070;BME280;41944;52.078;-0.058;2023-12-29T07:53:32;100206.10;;;9.72;98.06
56070;BME280;41944;52.078;-0.058;2023-12-29T07:55:59;100204.95;;;9.85;98.02
56070;BME280;41944;52.078;-0.058;2023-12-29T07:58:26;100204.88;;;9.76;97.90
56070;BME280;41944;52.078;-0.058;2023-12-29T08:00:53;100200.70;;;9.66;97.92
56070;BME280;41944;52.078;-0.058;2023-12-29T08:03:19;100200.05;;;9.69;97.96
56070;BME280;41944;52.078;-0.058;2023-12-29T08:05:46;100198.31;;;9.73;97.18
56070;BME280;41944;52.078;-0.058;2023-12-29T08:08:13;100199.51;;;9.69;96.98
56070;BME280;41944;52.078;-0.058;2023-12-29T08:10:40;100210.25;;;9.69;97.46
56070;BME280;41944;52.078;-0.058;2023-12-29T08:13:07;100217.27;;;9.71;97.60
56070;BME280;41944;52.078;-0.058;2023-12-29T08:15:34;100219.55;;;9.76;97.22
56070;BME280;41944;52.078;-0.058;2023-12-29T08:18:01;100217.43;;;9.76;97.24
56070;BME280;41944;52.078;-0.058;2023-12-29T08:20:28;100221.05;;;9.69;96.72
56070;BME280;41944;52.078;-0.058;2023-12-29T08:22:55;100219.32;;;9.69;96.14
56070;BME280;41944;52.078;-0.058;2023-12-29T08:25:22;100222.37;;;9.73;95.94
56070;BME280;41944;52.078;-0.058;2023-12-29T08:27:50;100223.10;;;9.76;95.84
56070;BME280;41944;52.078;-0.058;2023-12-29T08:30:17;100225.17;;;9.73;95.52
56070;BME280;41944;52.078;-0.058;2023-12-29T08:32:44;100224.05;;;9.80;95.36
56070;BME280;41944;52.078;-0.058;2023-12-29T08:35:10;100230.01;;;9.70;95.40
56070;BME280;41944;52.078;-0.058;2023-12-29T08:37:37;100232.57;;;9.70;95.96
56070;BME280;41944;52.078;-0.058;2023-12-29T08:40:05;100239.19;;;9.67;95.67
56070;BME280;41944;52.078;-0.058;2023-12-29T08:42:32;100243.74;;;9.73;95.36
56070;BME280;41944;52.078;-0.058;2023-12-29T08:44:59;100242.60;;;9.78;95.30
56070;BME280;41944;52.078;-0.058;2023-12-29T08:47:26;100245.36;;;9.81;94.98
56070;BME280;41944;52.078;-0.058;2023-12-29T08:49:53;100244.39;;;9.87;95.04
56070;BME280;41944;52.078;-0.058;2023-12-29T08:52:19;100249.27;;;9.89;94.13
56070;BME280;41944;52.078;-0.058;2023-12-29T08:54:46;100244.47;;;9.93;93.53
56070;BME280;41944;52.078;-0.058;2023-12-29T08:57:13;100248.50;;;9.97;93.16
56070;BME280;41944;52.078;-0.058;2023-12-29T08:59:41;100254.16;;;9.97;92.65
56070;BME280;41944;52.078;-0.058;2023-12-29T09:02:08;100248.97;;;10.01;91.33
56070;BME280;41944;52.078;-0.058;2023-12-29T09:04:34;100258.07;;;10.01;90.77
56070;BME280;41944;52.078;-0.058;2023-12-29T09:07:01;100265.37;;;10.05;91.03
56070;BME280;41944;52.078;-0.058;2023-12-29T09:09:28;100266.49;;;10.03;91.01
56070;BME280;41944;52.078;-0.058;2023-12-29T09:11:55;100267.76;;;10.04;91.46
56070;BME280;41944;52.078;-0.058;2023-12-29T09:14:22;100269.84;;;10.14;90.66
56070;BME280;41944;52.078;-0.058;2023-12-29T09:16:49;100268.76;;;10.20;90.04
56070;BME280;41944;52.078;-0.058;2023-12-29T09:19:17;100266.88;;;10.17;89.78
56070;BME280;41944;52.078;-0.058;2023-12-29T09:21:44;100268.69;;;10.15;89.78
56070;BME280;41944;52.078;-0.058;2023-12-29T09:24:11;100271.52;;;10.24;90.25
56070;BME280;41944;52.078;-0.058;2023-12-29T09:26:38;100276.08;;;10.30;88.34
56070;BME280;41944;52.078;-0.058;2023-12-29T09:29:04;100283.10;;;10.29;88.01
56070;BME280;41944;52.078;-0.058;2023-12-29T09:31:31;100278.37;;;10.32;87.90
56070;BME280;41944;52.078;-0.058;2023-12-29T09:33:58;100277.81;;;10.26;87.26
56070;BME280;41944;52.078;-0.058;2023-12-29T09:36:25;100282.16;;;10.26;88.29
56070;BME280;41944;52.078;-0.058;2023-12-29T09:38:52;100286.65;;;10.43;92.78
56070;BME280;41944;52.078;-0.058;2023-12-29T09:41:20;100292.15;;;10.54;86.88
56070;BME280;41944;52.078;-0.058;2023-12-29T09:43:50;100291.46;;;10.46;87.15
56070;BME280;41944;52.078;-0.058;2023-12-29T09:46:19;100297.96;;;10.51;87.17
56070;BME280;41944;52.078;-0.058;2023-12-29T09:48:49;100303.85;;;10.53;86.60
56070;BME280;41944;52.078;-0.058;2023-12-29T09:51:19;100303.68;;;10.55;86.46
56070;BME280;41944;52.078;-0.058;2023-12-29T09:53:49;100308.16;;;10.52;86.47
56070;BME280;41944;52.078;-0.058;2023-12-29T09:56:16;100310.00;;;10.55;87.34
56070;BME280;41944;52.078;-0.058;2023-12-29T09:58:46;100304.44;;;10.55;86.91
56070;BME280;41944;52.078;-0.058;2023-12-29T10:01:14;100292.89;;;10.55;86.80
56070;BME280;41944;52.078;-0.058;2023-12-29T10:03:44;100290.50;;;10.55;87.11
56070;BME280;41944;52.078;-0.058;2023-12-29T10:06:13;100295.13;;;10.59;86.95
56070;BME280;41944;52.078;-0.058;2023-12-29T10:08:45;100295.42;;;10.57;87.54
56070;BME280;41944;52.078;-0.058;2023-12-29T10:11:14;100300.20;;;10.57;88.42
56070;BME280;41944;52.078;-0.058;2023-12-29T10:13:42;100298.31;;;10.65;88.08
56070;BME280;41944;52.078;-0.058;2023-12-29T10:16:18;100297.59;;;10.70;87.40
56070;BME280;41944;52.078;-0.058;2023-12-29T10:18:58;100309.20;;;10.73;87.90
56070;BME280;41944;52.078;-0.058;2023-12-29T10:21:28;100314.54;;;10.77;87.93
56070;BME280;41944;52.078;-0.058;2023-12-29T10:24:01;100309.65;;;10.78;88.24
56070;BME280;41944;52.078;-0.058;2023-12-29T10:26:30;100310.35;;;10.79;89.79
56070;BME280;41944;52.078;-0.058;2023-12-29T10:28:57;100309.27;;;11.09;90.47
56070;BME280;41944;52.078;-0.058;2023-12-29T10:31:25;100311.29;;;11.30;89.70
56070;BME280;41944;52.078;-0.058;2023-12-29T10:33:52;100304.46;;;11.25;87.41
56070;BME280;41944;52.078;-0.058;2023-12-29T10:36:19;100301.83;;;11.33;87.37
56070;BME280;41944;52.078;-0.058;2023-12-29T10:38:46;100303.33;;;11.29;88.03
56070;BME280;41944;52.078;-0.058;2023-12-29T10:41:13;100301.09;;;11.24;88.72
56070;BME280;41944;52.078;-0.058;2023-12-29T10:43:42;100300.48;;;11.28;89.60
56070;BME280;41944;52.078;-0.058;2023-12-29T10:46:11;100299.80;;;11.25;89.78
56070;BME280;41944;52.078;-0.058;2023-12-29T10:48:38;100292.40;;;11.26;89.93
56070;BME280;41944;52.078;-0.058;2023-12-29T10:51:06;100286.23;;;11.21;89.76
56070;BME280;41944;52.078;-0.058;2023-12-29T10:53:34;100284.27;;;11.31;89.67
56070;BME280;41944;52.078;-0.058;2023-12-29T10:56:02;100284.71;;;11.27;89.97
56070;BME280;41944;52.078;-0.058;2023-12-29T10:58:29;100287.14;;;11.29;89.62
56070;BME280;41944;52.078;-0.058;2023-12-29T11:00:57;100286.83;;;11.29;89.44
56070;BME280;41944;52.078;-0.058;2023-12-29T11:03:25;100286.08;;;11.26;89.79
56070;BME280;41944;52.078;-0.058;2023-12-29T11:05:59;100286.50;;;11.33;89.52
56070;BME280;41944;52.078;-0.058;2023-12-29T11:08:26;100287.83;;;11.37;89.59
56070;BME280;41944;52.078;-0.058;2023-12-29T11:10:54;100292.15;;;11.31;89.59
56070;BME280;41944;52.078;-0.058;2023-12-29T11:13:22;100270.74;;;11.36;89.19
56070;BME280;41944;52.078;-0.058;2023-12-29T11:15:50;100261.46;;;11.41;88.43
56070;BME280;41944;52.078;-0.058;2023-12-29T11:18:19;100259.75;;;11.37;89.17
56070;BME280;41944;52.078;-0.058;2023-12-29T11:20:47;100268.14;;;11.43;88.95
56070;BME280;41944;52.078;-0.058;2023-12-29T11:23:14;100263.27;;;11.42;87.99
56070;BME280;41944;52.078;-0.058;2023-12-29T11:25:44;100262.11;;;11.47;87.74
56070;BME280;41944;52.078;-0.058;2023-12-29T11:28:11;100253.88;;;11.48;86.71
56070;BME280;41944;52.078;-0.058;2023-12-29T11:30:38;100264.38;;;11.45;86.72
56070;BME280;41944;52.078;-0.058;2023-12-29T11:33:08;100273.08;;;11.43;87.55
56070;BME280;41944;52.078;-0.058;2023-12-29T11:35:42;100264.07;;;11.50;87.12
56070;BME280;41944;52.078;-0.058;2023-12-29T11:38:24;100248.83;;;11.46;87.46
56070;BME280;41944;52.078;-0.058;2023-12-29T11:41:00;100244.68;;;11.44;87.48
56070;BME280;41944;52.078;-0.058;2023-12-29T11:43:29;100240.35;;;11.53;87.45
56070;BME280;41944;52.078;-0.058;2023-12-29T11:45:57;100246.50;;;11.52;87.25
56070;BME280;41944;52.078;-0.058;2023-12-29T11:48:57;100251.29;;;11.52;87.79
56070;BME280;41944;52.078;-0.058;2023-12-29T11:51:33;100250.47;;;11.62;88.02
56070;BME280;41944;52.078;-0.058;2023-12-29T11:54:01;100249.09;;;11.48;88.02
56070;BME280;41944;52.078;-0.058;2023-12-29T11:56:33;100265.27;;;11.46;88.49
56070;BME280;41944;52.078;-0.058;2023-12-29T11:59:17;100261.13;;;11.68;86.37
56070;BME280;41944;52.078;-0.058;2023-12-29T12:01:48;100269.19;;;11.74;84.33
56070;BME280;41944;52.078;-0.058;2023-12-29T12:04:47;100267.46;;;11.74;84.02
56070;BME280;41944;52.078;-0.058;2023-12-29T12:07:16;100266.61;;;11.84;83.89
56070;BME280;41944;52.078;-0.058;2023-12-29T12:09:43;100272.51;;;11.91;84.59
56070;BME280;41944;52.078;-0.058;2023-12-29T12:12:10;100277.62;;;11.86;82.38
56070;BME280;41944;52.078;-0.058;2023-12-29T12:14:47;100275.58;;;11.90;84.37
56070;BME280;41944;52.078;-0.058;2023-12-29T12:17:28;100265.83;;;11.90;80.51
56070;BME280;41944;52.078;-0.058;2023-12-29T12:19:57;100264.94;;;11.85;80.63
56070;BME280;41944;52.078;-0.058;2023-12-29T12:22:24;100263.43;;;11.81;81.99
56070;BME280;41944;52.078;-0.058;2023-12-29T12:24:55;100261.63;;;11.77;83.10
56070;BME280;41944;52.078;-0.058;2023-12-29T12:27:23;100259.84;;;11.83;82.71
56070;BME280;41944;52.078;-0.058;2023-12-29T12:29:52;100264.09;;;11.88;80.55
56070;BME280;41944;52.078;-0.058;2023-12-29T12:32:20;100273.42;;;11.86;81.24
56070;BME280;41944;52.078;-0.058;2023-12-29T12:34:46;100272.92;;;11.81;80.05
56070;BME280;41944;52.078;-0.058;2023-12-29T12:37:19;100265.22;;;11.82;79.45
56070;BME280;41944;52.078;-0.058;2023-12-29T12:39:46;100257.34;;;11.77;79.52
56070;BME280;41944;52.078;-0.058;2023-12-29T12:42:13;100266.10;;;11.76;80.46
56070;BME280;41944;52.078;-0.058;2023-12-29T12:44:48;100263.30;;;11.64;80.56